Time;durP1;ratioP1;P1;durP2;ratioP2;P2;SDS_P1;SDS_P2;PMS_P1;PMS_P2;Temp;Humidity;BMP_temperature;BMP_pressure;BME280_temperature;BME280_humidity;BME280_pressure;Samples;Min_cycle;Max_cycle;Signal;HPM_P1;HPM_P2
2022/03/24 00:00:28;;;;;;;55.28;38.75;;;;;;;9.85;45.30;102829.44;5104230;28;20482;-65
2022/03/24 00:02:55;;;;;;;50.17;36.67;;;;;;;9.81;45.59;102835.78;5099986;28;20081;-65
2022/03/24 00:05:21;;;;;;;53.63;37.63;;;;;;;9.72;45.71;102829.78;5078617;28;20035;-65
2022/03/24 00:07:48;;;;;;;51.28;38.25;;;;;;;9.73;45.57;102828.00;5076733;28;20036;-65
2022/03/24 00:10:14;;;;;;;53.22;38.28;;;;;;;9.41;46.64;102824.47;5093106;28;20390;-65
2022/03/24 00:12:39;;;;;;;57.03;40.15;;;;;;;9.51;46.66;102822.41;5079836;28;20032;-65
2022/03/24 00:15:07;;;;;;;54.33;40.67;;;;;;;9.66;46.54;102837.06;5060104;28;20424;-65
2022/03/24 00:17:32;;;;;;;51.40;39.72;;;;;;;9.55;46.82;102834.69;5107870;28;20042;-65
2022/03/24 00:19:59;;;;;;;55.00;40.58;;;;;;;9.36;47.53;102829.00;5092304;28;20072;-65
2022/03/24 00:22:25;;;;;;;52.42;40.15;;;;;;;9.36;47.49;102830.78;5108221;28;20026;-65
2022/03/24 00:24:50;;;;;;;50.40;39.22;;;;;;;9.26;47.43;102823.03;5042070;28;1178152;-65
2022/03/24 00:27:16;;;;;;;56.63;41.28;;;;;;;9.30;48.07;102832.69;5107538;28;20031;-65
2022/03/24 00:29:42;;;;;;;57.45;40.95;;;;;;;9.28;48.04;102826.53;5104897;28;20032;-65
2022/03/24 00:32:09;;;;;;;59.33;41.20;;;;;;;9.32;47.92;102827.31;5109851;28;20362;-65
2022/03/24 00:34:35;;;;;;;55.97;39.90;;;;;;;9.12;48.54;102829.63;5084401;28;20465;-65
2022/03/24 00:37:02;;;;;;;56.83;40.65;;;;;;;9.10;48.63;102827.00;5070937;28;20016;-65
2022/03/24 00:39:30;;;;;;;52.78;39.60;;;;;;;8.95;48.94;102830.06;5096574;28;20052;-65
2022/03/24 00:41:59;;;;;;;61.38;41.13;;;;;;;8.97;48.84;102822.91;5101067;28;20088;-65
2022/03/24 00:44:28;;;;;;;56.50;39.70;;;;;;;8.83;49.24;102820.59;5080871;28;20035;-65
2022/03/24 00:46:55;;;;;;;57.63;39.63;;;;;;;8.92;49.31;102819.50;5100180;28;20277;-65
2022/03/24 00:49:22;;;;;;;54.72;38.90;;;;;;;9.01;49.04;102822.81;5110819;28;20047;-65
2022/03/24 00:51:48;;;;;;;51.55;38.67;;;;;;;8.93;49.01;102821.25;5079977;28;20514;-65
2022/03/24 00:54:18;;;;;;;54.67;38.95;;;;;;;8.80;49.26;102810.94;5074005;28;20058;-65
2022/03/24 00:56:45;;;;;;;51.92;38.25;;;;;;;8.70;49.83;102808.53;5087846;28;20505;-65
2022/03/24 00:59:17;;;;;;;54.90;38.38;;;;;;;8.86;49.42;102818.75;5097464;28;20038;-65
2022/03/24 01:01:42;;;;;;;52.20;38.03;;;;;;;8.79;49.50;102821.56;5101969;28;20028;-65
2022/03/24 01:04:12;;;;;;;53.38;38.03;;;;;;;8.81;49.43;102822.41;5067405;28;20096;-65
2022/03/24 01:06:38;;;;;;;57.10;39.70;;;;;;;8.64;50.11;102812.19;5081228;28;20064;-65
2022/03/24 01:09:05;;;;;;;57.40;39.35;;;;;;;8.70;49.64;102800.56;5091636;28;20086;-65
2022/03/24 01:11:31;;;;;;;51.50;38.90;;;;;;;8.42;50.46;102801.22;5097763;28;20355;-65
2022/03/24 01:13:57;;;;;;;52.60;39.78;;;;;;;8.50;50.09;102796.63;5096356;28;20027;-65
2022/03/24 01:16:24;;;;;;;55.70;39.63;;;;;;;8.59;49.99;102801.72;5092099;28;20028;-65
2022/03/24 01:18:53;;;;;;;56.97;39.67;;;;;;;8.35;50.76;102799.56;5100806;28;20042;-65
2022/03/24 01:21:18;;;;;;;53.38;40.03;;;;;;;8.22;51.05;102798.97;5089489;28;20039;-65
2022/03/24 01:23:53;;;;;;;54.00;40.15;;;;;;;8.25;51.57;102803.34;5104526;28;20032;-65
2022/03/24 01:26:18;;;;;;;55.67;41.33;;;;;;;8.29;51.13;102800.56;5081019;28;20060;-65
2022/03/24 01:28:44;;;;;;;55.80;40.20;;;;;;;8.28;51.06;102801.47;5105912;28;20448;-65
2022/03/24 01:31:10;;;;;;;59.47;39.53;;;;;;;8.23;50.85;102806.00;5095361;28;20040;-65
2022/03/24 01:33:37;;;;;;;53.88;39.92;;;;;;;8.12;51.03;102794.78;5096188;28;20418;-65
2022/03/24 01:36:08;;;;;;;55.38;40.22;;;;;;;7.99;51.94;102793.28;5077933;28;20036;-65
2022/03/24 01:38:34;;;;;;;58.97;41.67;;;;;;;8.09;51.09;102792.16;5101761;28;20466;-65
2022/03/24 01:41:00;;;;;;;54.22;41.45;;;;;;;8.02;51.69;102788.78;5079290;28;20029;-65
2022/03/24 01:43:26;;;;;;;58.47;41.03;;;;;;;7.97;51.37;102772.09;5095085;28;20030;-65
2022/03/24 01:45:53;;;;;;;57.30;40.85;;;;;;;8.02;51.52;102779.97;5094455;28;20020;-65
2022/03/24 01:48:19;;;;;;;57.65;41.00;;;;;;;8.04;51.36;102784.34;5095125;28;20077;-65
2022/03/24 01:50:45;;;;;;;54.85;40.38;;;;;;;8.02;51.70;102779.97;5093142;28;20054;-65
2022/03/24 01:53:12;;;;;;;56.97;39.83;;;;;;;7.86;51.83;102777.66;5095711;28;20039;-65
2022/03/24 01:55:39;;;;;;;56.20;41.53;;;;;;;7.88;51.86;102780.25;5082402;28;20499;-65
2022/03/24 01:58:05;;;;;;;63.63;41.85;;;;;;;7.85;51.73;102777.66;5105418;28;20031;-65
2022/03/24 02:00:31;;;;;;;58.85;40.63;;;;;;;7.91;51.50;102766.94;5099982;28;20077;-65
2022/03/24 02:03:02;;;;;;;55.50;41.03;;;;;;;7.99;51.64;102757.06;5103118;28;20038;-65
2022/03/24 02:05:36;;;;;;;53.42;39.53;;;;;;;7.94;51.93;102764.22;5095464;28;20046;-65
2022/03/24 02:08:04;;;;;;;64.32;41.45;;;;;;;7.90;51.90;102767.84;5098731;28;20107;-65
2022/03/24 02:10:31;;;;;;;60.13;41.40;;;;;;;7.73;52.43;102770.84;5094510;28;20100;-65
2022/03/24 02:12:57;;;;;;;63.72;41.50;;;;;;;7.66;52.11;102770.09;5112970;28;20527;-65
2022/03/24 02:15:24;;;;;;;59.17;42.38;;;;;;;7.66;52.94;102775.41;5091061;28;20080;-65
2022/03/24 02:17:52;;;;;;;58.67;42.28;;;;;;;7.50;52.99;102764.25;5087086;28;20466;-65
2022/03/24 02:20:18;;;;;;;56.33;42.05;;;;;;;7.39;52.71;102770.66;5103609;28;20034;-65
2022/03/24 02:22:45;;;;;;;63.38;41.60;;;;;;;7.55;52.65;102769.44;5085703;28;20119;-65
2022/03/24 02:25:11;;;;;;;59.05;41.53;;;;;;;7.47;52.87;102771.34;5067500;28;20039;-65
2022/03/24 02:27:38;;;;;;;61.65;42.67;;;;;;;7.52;52.81;102761.56;5078161;28;20068;-65
2022/03/24 02:30:05;;;;;;;60.10;42.13;;;;;;;7.30;53.32;102768.19;5085452;28;20552;-65
2022/03/24 02:32:30;;;;;;;59.38;41.53;;;;;;;7.20;53.18;102756.84;5082001;28;20020;-65
2022/03/24 02:34:59;;;;;;;64.45;42.45;;;;;;;7.23;53.12;102760.31;5078463;28;20020;-65
2022/03/24 02:37:30;;;;;;;58.53;41.22;;;;;;;7.17;53.31;102765.72;5085182;28;20051;-65
2022/03/24 02:39:58;;;;;;;63.20;42.22;;;;;;;7.18;53.33;102764.84;5087251;28;20019;-65
2022/03/24 02:42:29;;;;;;;57.88;40.95;;;;;;;7.20;53.09;102765.66;5081736;28;20016;-65
2022/03/24 02:45:00;;;;;;;58.58;42.28;;;;;;;7.24;53.75;102771.81;5074689;28;20025;-65
2022/03/24 02:47:31;;;;;;;58.95;42.28;;;;;;;7.11;53.79;102771.13;5077810;28;20025;-65
2022/03/24 02:49:58;;;;;;;59.03;40.95;;;;;;;7.04;53.77;102767.72;5082241;28;20056;-65
2022/03/24 02:52:24;;;;;;;57.88;42.55;;;;;;;6.84;54.15;102767.19;5087101;28;20047;-65
2022/03/24 02:54:50;;;;;;;60.33;42.88;;;;;;;6.88;53.80;102770.66;5074796;28;20028;-65
2022/03/24 02:57:16;;;;;;;64.75;43.13;;;;;;;6.72;54.29;102768.25;5081138;28;20032;-65
2022/03/24 02:59:42;;;;;;;60.88;43.17;;;;;;;6.75;54.01;102764.69;5079227;28;21746;-65
2022/03/24 03:02:08;;;;;;;61.92;41.33;;;;;;;6.66;54.89;102778.06;5084455;28;20024;-65
2022/03/24 03:04:35;;;;;;;61.20;41.25;;;;;;;6.70;54.88;102770.03;5091241;28;20039;-65
2022/03/24 03:07:03;;;;;;;66.63;43.88;;;;;;;6.72;53.98;102770.03;5082176;28;20034;-65
2022/03/24 03:09:30;;;;;;;57.53;41.83;;;;;;;6.43;54.93;102774.00;5081552;28;20056;-65
2022/03/24 03:11:58;;;;;;;58.22;41.75;;;;;;;6.54;54.80;102768.56;5089788;28;20024;-65
2022/03/24 03:14:25;;;;;;;64.10;42.45;;;;;;;6.72;53.70;102770.03;5077920;28;20070;-64
2022/03/24 03:16:51;;;;;;;61.05;43.20;;;;;;;6.74;53.83;102769.13;5077784;28;20399;-64
2022/03/24 03:19:22;;;;;;;60.05;42.42;;;;;;;6.66;53.87;102776.28;5073536;28;20024;-65
2022/03/24 03:21:49;;;;;;;61.38;44.50;;;;;;;6.68;54.34;102777.16;5079834;28;20032;-64
2022/03/24 03:24:15;;;;;;;64.07;44.75;;;;;;;6.59;54.22;102779.94;5058324;28;20074;-65
2022/03/24 03:26:41;;;;;;;63.47;42.50;;;;;;;6.53;54.19;102769.44;5092928;28;20105;-65
2022/03/24 03:29:10;;;;;;;61.13;44.40;;;;;;;6.60;54.43;102768.47;5108853;28;20051;-65
2022/03/24 03:31:38;;;;;;;61.40;44.35;;;;;;;6.57;54.14;102764.09;5096678;28;20027;-64
2022/03/24 03:34:07;;;;;;;67.70;44.55;;;;;;;6.65;54.13;102766.63;5098452;28;20028;-64
2022/03/24 03:36:35;;;;;;;62.85;43.95;;;;;;;6.48;54.17;102769.50;5108289;28;20081;-65
2022/03/24 03:39:02;;;;;;;67.85;43.35;;;;;;;6.49;54.38;102773.91;5102610;28;20027;-65
2022/03/24 03:41:28;;;;;;;61.38;43.75;;;;;;;6.32;54.88;102770.63;5098489;28;20106;-65
2022/03/24 03:43:54;;;;;;;66.53;44.63;;;;;;;6.42;54.13;102774.03;5094861;28;20054;-64
2022/03/24 03:46:19;;;;;;;66.50;45.65;;;;;;;6.30;54.61;102772.44;5106596;28;20043;-65
2022/03/24 03:48:45;;;;;;;69.18;44.35;;;;;;;6.28;54.99;102772.44;5075187;28;20027;-64
2022/03/24 03:51:11;;;;;;;63.60;45.83;;;;;;;6.39;54.29;102769.66;5097200;28;20364;-65
2022/03/24 03:53:37;;;;;;;71.63;47.20;;;;;;;6.22;54.94;102775.16;5098381;28;20039;-64
2022/03/24 03:56:05;;;;;;;70.80;46.17;;;;;;;6.22;55.34;102774.31;5098578;28;20027;-65
2022/03/24 03:58:34;;;;;;;69.18;44.33;;;;;;;6.16;55.04;102772.63;5081091;28;20039;-65
2022/03/24 04:01:02;;;;;;;64.47;43.92;;;;;;;6.06;55.04;102765.69;5107773;28;20035;-65
2022/03/24 04:03:32;;;;;;;69.13;46.00;;;;;;;6.10;55.16;102770.94;5109338;28;20031;-65
2022/03/24 04:06:04;;;;;;;64.30;44.65;;;;;;;6.02;55.61;102770.16;5093316;28;20402;-65
2022/03/24 04:08:31;;;;;;;66.28;44.50;;;;;;;5.98;55.82;102764.94;5108052;28;20031;-65
2022/03/24 04:10:57;;;;;;;66.35;44.35;;;;;;;5.95;55.61;102767.63;5081181;28;20023;-65
2022/03/24 04:13:23;;;;;;;71.75;46.72;;;;;;;5.98;55.83;102773.75;5093640;28;20037;-66
2022/03/24 04:15:51;;;;;;;63.30;44.60;;;;;;;5.89;55.55;102766.78;5106290;28;20156;-64
2022/03/24 04:18:17;;;;;;;69.20;45.83;;;;;;;5.91;55.96;102765.00;5111283;28;20127;-65
2022/03/24 04:20:45;;;;;;;65.55;46.63;;;;;;;5.89;56.20;102769.41;5080002;28;20024;-65
2022/03/24 04:23:12;;;;;;;64.85;46.25;;;;;;;5.98;55.92;102776.38;5076029;28;20024;-64
2022/03/24 04:25:38;;;;;;;71.60;46.45;;;;;;;5.85;56.32;102774.72;5096358;28;20074;-64
2022/03/24 04:28:05;;;;;;;68.22;44.60;;;;;;;5.83;56.31;102771.25;5098889;28;20467;-65
2022/03/24 04:30:31;;;;;;;64.13;45.88;;;;;;;5.76;56.72;102766.94;5079242;28;20547;-64
2022/03/24 04:32:58;;;;;;;67.82;46.10;;;;;;;5.77;56.24;102772.22;5095662;28;20035;-65
2022/03/24 04:35:24;;;;;;;70.97;47.38;;;;;;;5.62;57.46;102767.97;5092430;28;20040;-64
2022/03/24 04:37:50;;;;;;;66.10;46.25;;;;;;;5.63;56.74;102760.94;5089955;28;20023;-65
2022/03/24 04:40:17;;;;;;;64.97;44.35;;;;;;;5.79;56.72;102764.25;5094991;28;20391;-64
2022/03/24 04:42:45;;;;;;;68.43;45.10;;;;;;;5.62;57.48;102761.84;5103834;28;20039;-65
2022/03/24 04:45:10;;;;;;;65.63;45.00;;;;;;;5.64;56.97;102778.50;5097426;28;20027;-65
2022/03/24 04:47:37;;;;;;;63.67;45.25;;;;;;;5.70;56.66;102762.59;5104343;28;20043;-64
2022/03/24 04:50:03;;;;;;;65.40;45.00;;;;;;;5.65;56.88;102767.94;5107794;28;20494;-65
2022/03/24 04:52:28;;;;;;;63.63;45.03;;;;;;;5.46;57.22;102782.22;5106488;28;21719;-65
2022/03/24 04:54:57;;;;;;;60.97;45.25;;;;;;;5.39;57.57;102780.56;5093031;28;20061;-64
2022/03/24 04:57:23;;;;;;;64.10;46.33;;;;;;;5.43;57.27;102775.22;5102952;28;20028;-65
2022/03/24 04:59:50;;;;;;;69.40;46.53;;;;;;;5.48;57.20;102777.81;5103401;28;20025;-65
2022/03/24 05:02:17;;;;;;;65.68;45.10;;;;;;;5.49;57.15;102776.03;5086373;28;20069;-65
2022/03/24 05:04:45;;;;;;;63.28;44.83;;;;;;;5.35;57.39;102773.53;5080925;28;20042;-64
2022/03/24 05:07:12;;;;;;;68.13;45.92;;;;;;;5.28;57.80;102777.16;5100465;28;20337;-65
2022/03/24 05:09:38;;;;;;;68.70;45.50;;;;;;;5.16;57.95;102779.00;5085096;28;20035;-64
2022/03/24 05:12:07;;;;;;;61.72;43.67;;;;;;;5.12;58.70;102786.97;5059463;28;20032;-65
2022/03/24 05:14:34;;;;;;;64.78;45.13;;;;;;;5.22;58.42;102780.72;5108904;28;20024;-65
2022/03/24 05:17:01;;;;;;;60.63;44.88;;;;;;;5.06;58.89;102768.53;5087254;28;20030;-64
2022/03/24 05:19:27;;;;;;;66.95;46.45;;;;;;;5.15;58.50;102779.03;5100158;28;20045;-64
2022/03/24 05:21:53;;;;;;;69.97;47.05;;;;;;;5.11;58.74;102782.56;5083738;28;20027;-64
2022/03/24 05:24:19;;;;;;;70.65;44.50;;;;;;;4.92;59.07;102774.81;5110089;28;20474;-65
2022/03/24 05:26:45;;;;;;;65.97;43.55;;;;;;;4.91;59.22;102785.38;5093966;28;20097;-65
2022/03/24 05:29:11;;;;;;;67.53;45.17;;;;;;;5.07;59.55;102786.13;5086194;28;20068;-65
2022/03/24 05:31:37;;;;;;;71.25;46.67;;;;;;;4.82;59.62;102782.81;5078938;28;20032;-65
2022/03/24 05:34:03;;;;;;;67.03;45.40;;;;;;;4.93;59.20;102784.47;5087158;28;20028;-65
2022/03/24 05:36:30;;;;;;;66.65;44.92;;;;;;;4.98;59.39;102797.63;5098800;28;20028;-65
2022/03/24 05:38:56;;;;;;;65.78;46.33;;;;;;;5.03;59.63;102798.47;5077585;28;20031;-64
2022/03/24 05:41:21;;;;;;;68.18;44.97;;;;;;;5.08;59.42;102795.78;5106706;28;20383;-65
2022/03/24 05:44:06;;;;;;;74.90;45.88;;;;;;;5.03;59.38;102797.56;5105275;28;20036;-64
2022/03/24 05:46:44;;;;;;;63.53;44.88;;;;;;;4.98;59.26;102800.28;5097555;28;20024;-65
2022/03/24 05:49:19;;;;;;;64.45;45.00;;;;;;;4.97;59.59;102793.22;5106187;28;20024;-65
2022/03/24 05:51:45;;;;;;;65.30;46.05;;;;;;;5.06;59.92;102806.38;5093037;28;20051;-65
2022/03/24 05:54:13;;;;;;;68.03;45.88;;;;;;;5.08;59.18;102803.69;5098350;28;20103;-64
2022/03/24 05:56:39;;;;;;;70.88;45.50;;;;;;;5.01;59.93;102800.25;5106960;28;20038;-64
2022/03/24 05:59:05;;;;;;;61.55;43.10;;;;;;;4.97;60.14;102809.03;5101328;28;20020;-65
2022/03/24 06:01:31;;;;;;;69.90;44.22;;;;;;;4.88;60.02;102806.47;5081987;28;20023;-65
2022/03/24 06:03:59;;;;;;;67.60;45.47;;;;;;;4.97;60.12;102803.78;5112971;28;20028;-65
2022/03/24 06:06:26;;;;;;;66.22;45.60;;;;;;;5.03;59.94;102801.13;5078461;28;20518;-65
2022/03/24 06:08:53;;;;;;;60.95;44.05;;;;;;;4.95;60.44;102808.22;5081435;28;20065;-65
2022/03/24 06:11:19;;;;;;;67.40;45.13;;;;;;;4.96;59.84;102810.81;5108143;28;20386;-64
2022/03/24 06:13:46;;;;;;;65.40;44.75;;;;;;;5.01;60.44;102819.56;5111716;28;20102;-64
2022/03/24 06:16:13;;;;;;;64.05;45.42;;;;;;;5.10;60.59;102815.97;5105217;28;20027;-64
2022/03/24 06:18:39;;;;;;;67.22;45.55;;;;;;;5.12;60.27;102816.00;5091320;28;20151;-64
2022/03/24 06:21:05;;;;;;;66.80;46.17;;;;;;;5.13;60.02;102823.00;5080065;28;20039;-65
2022/03/24 06:23:31;;;;;;;69.20;46.72;;;;;;;5.24;59.50;102823.78;5088923;28;20036;-64
2022/03/24 06:25:57;;;;;;;66.97;46.03;;;;;;;5.28;60.23;102817.59;5092335;28;20062;-64
2022/03/24 06:28:23;;;;;;;76.22;47.28;;;;;;;5.33;59.46;102813.16;5085880;28;20035;-64
2022/03/24 06:30:49;;;;;;;64.18;45.13;;;;;;;5.33;60.34;102810.50;5099411;28;20524;-64
2022/03/24 06:33:17;;;;;;;68.05;45.97;;;;;;;5.41;60.47;102818.31;5109515;28;20028;-65
2022/03/24 06:35:47;;;;;;;70.78;46.17;;;;;;;5.51;59.88;102816.50;5100198;28;20032;-64
2022/03/24 06:38:14;;;;;;;72.10;46.80;;;;;;;5.51;60.48;102819.13;5112649;28;20038;-65
2022/03/24 06:40:40;;;;;;;68.13;45.20;;;;;;;5.46;60.63;102816.53;5103198;28;20114;-65
2022/03/24 06:43:07;;;;;;;64.63;46.55;;;;;;;5.54;60.96;102811.19;5080995;28;20111;-64
2022/03/24 06:45:34;;;;;;;69.25;45.95;;;;;;;5.59;61.59;102812.88;5098535;28;20609;-64
2022/03/24 06:48:02;;;;;;;72.93;48.58;;;;;;;5.71;61.31;102811.88;5104654;28;20130;-64
2022/03/24 06:50:27;;;;;;;71.85;48.90;;;;;;;5.84;60.25;102820.53;5074651;28;20032;-66
2022/03/24 06:52:53;;;;;;;73.90;49.10;;;;;;;5.84;61.65;102809.97;5096918;28;20032;-67
2022/03/24 06:55:19;;;;;;;71.22;48.60;;;;;;;5.97;61.24;102811.63;5089310;28;20058;-67
2022/03/24 06:57:45;;;;;;;74.57;49.05;;;;;;;6.00;61.59;102815.97;5094180;28;20028;-67
2022/03/24 07:00:12;;;;;;;76.03;50.97;;;;;;;6.10;60.98;102818.47;5077727;28;20019;-67
2022/03/24 07:02:40;;;;;;;85.63;52.35;;;;;;;6.20;61.97;102813.06;5095298;28;20154;-66
2022/03/24 07:05:09;;;;;;;72.47;50.03;;;;;;;6.30;60.96;102812.06;5076877;28;20032;-66
2022/03/24 07:07:35;;;;;;;79.03;50.00;;;;;;;6.53;61.60;102819.66;5083915;28;20046;-67
2022/03/24 07:10:01;;;;;;;73.88;51.10;;;;;;;6.64;60.45;102816.88;5072206;28;20031;-67
2022/03/24 07:12:26;;;;;;;74.72;49.45;;;;;;;6.74;61.67;102814.06;5110959;28;20023;-66
2022/03/24 07:14:52;;;;;;;71.85;49.10;;;;;;;6.96;60.63;102822.53;5082278;28;20039;-67
2022/03/24 07:17:19;;;;;;;71.95;51.05;;;;;;;7.14;60.38;102820.47;5109606;28;20023;-67
2022/03/24 07:19:45;;;;;;;72.07;48.92;;;;;;;7.36;60.20;102824.50;5076829;28;20015;-67
2022/03/24 07:22:10;;;;;;;72.93;50.47;;;;;;;7.48;58.61;102821.63;5075419;28;20501;-66
2022/03/24 07:24:36;;;;;;;79.68;51.55;;;;;;;7.69;57.69;102823.00;5058828;28;20031;-66
2022/03/24 07:27:02;;;;;;;72.55;49.72;;;;;;;7.88;57.81;102826.19;5101652;28;20024;-66
2022/03/24 07:29:28;;;;;;;73.95;50.22;;;;;;;8.05;57.39;102815.22;5087201;28;20059;-66
2022/03/24 07:31:54;;;;;;;72.93;51.10;;;;;;;8.20;57.02;102824.63;5105086;28;20042;-67
2022/03/24 07:34:20;;;;;;;78.07;51.80;;;;;;;8.40;56.61;102827.75;5102290;28;20035;-66
2022/03/24 07:36:49;;;;;;;70.88;51.08;;;;;;;8.53;56.77;102832.78;5111293;28;20080;-66
2022/03/24 07:39:17;;;;;;;72.70;51.80;;;;;;;8.69;55.96;102830.66;5104577;28;20052;-66
2022/03/24 07:41:45;;;;;;;70.65;50.25;;;;;;;8.81;55.10;102836.53;5096488;28;20039;-66
2022/03/24 07:44:11;;;;;;;64.15;47.85;;;;;;;8.99;54.09;102829.91;5082080;28;20043;-66
2022/03/24 07:46:38;;;;;;;69.07;45.08;;;;;;;9.17;53.42;102836.56;5065462;28;20031;-66
2022/03/24 07:49:07;;;;;;;63.45;45.10;;;;;;;9.24;54.87;102830.19;5074409;28;20500;-66
2022/03/24 07:51:34;;;;;;;66.88;43.17;;;;;;;9.47;52.73;102828.69;5075072;28;20490;-66
2022/03/24 07:54:03;;;;;;;62.53;42.70;;;;;;;9.59;50.91;102825.75;5098557;28;20028;-66
2022/03/24 07:56:30;;;;;;;63.33;43.10;;;;;;;9.77;49.69;102827.03;5109072;28;20085;-66
2022/03/24 07:58:57;;;;;;;57.03;40.58;;;;;;;9.92;49.05;102834.56;5076574;28;20084;-64
2022/03/24 08:01:36;;;;;;;61.83;40.97;;;;;;;10.06;49.05;102825.31;5093109;28;20035;-64
2022/03/24 08:04:06;;;;;;;58.67;41.83;;;;;;;10.28;50.93;102823.78;5108606;28;20107;-64
2022/03/24 08:06:33;;;;;;;60.60;41.50;;;;;;;10.38;47.36;102835.00;5110258;28;20020;-65
2022/03/24 08:09:00;;;;;;;61.25;41.72;;;;;;;10.58;46.81;102840.59;5102225;28;20415;-65
2022/03/24 08:11:26;;;;;;;61.08;41.75;;;;;;;10.84;47.39;102837.13;5111165;28;20019;-64
2022/03/24 08:13:57;;;;;;;58.85;42.88;;;;;;;11.06;46.11;102836.41;5093417;28;20027;-65
2022/03/24 08:16:24;;;;;;;;;;;;;;;11.22;47.29;102839.44;5080223;28;20051;-64
2022/03/24 08:18:49;;;;;;;59.13;39.53;;;;;;;11.45;44.01;102838.66;5084488;28;19959;-64
2022/03/24 08:21:14;;;;;;;54.70;40.22;;;;;;;11.69;43.58;102839.59;5068032;28;20066;-64
2022/03/24 08:23:40;;;;;;;59.35;40.10;;;;;;;11.90;42.81;102837.97;5103989;28;20027;-64
2022/03/24 08:26:09;;;;;;;61.95;39.63;;;;;;;12.12;42.26;102838.94;5092403;28;20032;-64
2022/03/24 08:28:35;;;;;;;57.28;41.92;;;;;;;12.23;41.96;102846.50;5081457;28;20028;-64
2022/03/24 08:31:00;;;;;;;53.13;39.65;;;;;;;12.31;41.11;102841.75;5098730;28;20027;-64
2022/03/24 08:33:28;;;;;;;51.40;40.20;;;;;;;12.66;40.22;102848.41;5102030;28;20391;-64
2022/03/24 08:35:53;;;;;;;56.28;38.28;;;;;;;12.70;39.27;102852.66;5100616;28;20031;-65
2022/03/24 08:38:19;;;;;;;52.05;39.90;;;;;;;13.05;38.68;102855.72;5090728;28;20026;-64
2022/03/24 08:40:45;;;;;;;53.40;38.40;;;;;;;13.19;37.76;102853.34;5056012;28;20097;-64
2022/03/24 08:43:10;;;;;;;52.58;38.75;;;;;;;13.46;38.95;102849.59;5080565;28;20047;-64
2022/03/24 08:45:37;;;;;;;51.45;38.35;;;;;;;13.57;37.19;102847.34;5089010;28;20475;-64
2022/03/24 08:48:03;;;;;;;50.78;38.03;;;;;;;13.79;36.77;102849.91;5097807;28;20053;-64
2022/03/24 08:50:29;;;;;;;56.33;39.50;;;;;;;13.98;38.72;102845.50;5083011;28;20027;-64
2022/03/24 08:52:55;;;;;;;54.65;37.63;;;;;;;14.16;35.45;102845.59;5108254;28;20050;-64
2022/03/24 08:55:21;;;;;;;48.72;36.88;;;;;;;14.42;36.74;102853.28;5103481;28;20031;-64
2022/03/24 08:57:47;;;;;;;50.05;38.03;;;;;;;14.51;35.31;102846.63;5080365;28;20036;-64
2022/03/24 09:00:15;;;;;;;74.72;38.53;;;;;;;14.77;34.61;102838.22;5101480;28;20019;-64
2022/03/24 09:02:46;;;;;;;48.35;36.17;;;;;;;14.91;34.22;102842.03;5079683;28;20473;-65
2022/03/24 09:05:12;;;;;;;51.47;36.67;;;;;;;15.09;34.01;102848.28;5096104;28;20425;-64
2022/03/24 09:07:38;;;;;;;46.38;34.63;;;;;;;15.34;33.00;102848.78;5097170;28;20077;-64
2022/03/24 09:10:06;;;;;;;49.95;36.30;;;;;;;15.48;32.07;102844.53;5095887;28;20032;-64
2022/03/24 09:12:34;;;;;;;39.97;31.48;;;;;;;15.76;31.08;102855.56;5090297;28;20051;-65
2022/03/24 09:15:00;;;;;;;42.17;32.22;;;;;;;15.83;30.54;102854.31;5069066;28;20034;-66
2022/03/24 09:17:26;;;;;;;46.88;34.30;;;;;;;16.15;31.05;102856.19;5111055;28;20031;-65
2022/03/24 09:19:51;;;;;;;40.38;30.67;;;;;;;16.26;30.06;102851.13;5068205;28;20028;-65
2022/03/24 09:22:17;;;;;;;39.22;30.83;;;;;;;16.48;28.22;102854.34;5080639;28;20469;-65
2022/03/24 09:24:42;;;;;;;124.25;35.17;;;;;;;16.70;28.57;102861.19;5074620;28;20055;-65
2022/03/24 09:27:08;;;;;;;46.53;32.35;;;;;;;16.91;29.22;102860.03;5072078;28;20107;-65
2022/03/24 09:29:33;;;;;;;43.60;34.65;;;;;;;17.12;29.28;102859.69;5066623;28;20443;-65
2022/03/24 09:31:59;;;;;;;42.20;32.30;;;;;;;17.22;29.66;102858.22;5100041;28;20115;-64
2022/03/24 09:34:25;;;;;;;36.17;30.40;;;;;;;17.31;28.67;102856.81;5104980;28;20051;-64
2022/03/24 09:36:54;;;;;;;35.92;30.50;;;;;;;17.47;28.25;102863.00;5075463;28;20114;-64
2022/03/24 09:39:19;;;;;;;44.60;30.45;;;;;;;17.50;26.57;102854.75;5099039;28;20126;-64
2022/03/24 09:41:47;;;;;;;150.82;37.45;;;;;;;17.72;27.32;102865.06;5073738;28;20115;-65
2022/03/24 09:44:14;;;;;;;37.42;28.08;;;;;;;18.08;26.21;102861.09;5084769;28;20035;-65
2022/03/24 09:46:41;;;;;;;32.45;26.50;;;;;;;18.21;24.84;102863.91;5103205;28;20034;-64
2022/03/24 09:49:10;;;;;;;32.58;26.58;;;;;;;18.36;25.20;102854.84;5084767;28;20535;-65
2022/03/24 09:51:39;;;;;;;33.05;27.17;;;;;;;18.41;25.63;102858.09;5077561;28;20497;-65
2022/03/24 09:54:06;;;;;;;31.65;26.23;;;;;;;18.67;25.29;102850.16;5102570;28;20031;-64
2022/03/24 09:56:34;;;;;;;34.05;25.70;;;;;;;18.82;25.29;102858.16;5092011;28;20859;-65
2022/03/24 09:59:00;;;;;;;32.28;25.90;;;;;;;19.06;23.37;102857.47;5089420;28;20024;-65
2022/03/24 10:01:27;;;;;;;33.95;26.27;;;;;;;19.28;23.08;102859.56;5113663;28;20024;-65
2022/03/24 10:04:08;;;;;;;32.65;26.75;;;;;;;19.30;24.24;102857.66;5094619;28;20398;-65
2022/03/24 10:06:34;;;;;;;34.00;28.20;;;;;;;19.49;22.59;102854.53;5088059;28;20036;-65
2022/03/24 10:09:00;;;;;;;36.25;27.70;;;;;;;19.50;21.70;102856.25;5093629;28;20107;-65
2022/03/24 10:11:27;;;;;;;29.55;25.70;;;;;;;19.65;22.96;102851.69;5093000;28;20123;-65
2022/03/24 10:13:54;;;;;;;23.85;21.35;;;;;;;19.78;21.07;102859.78;5075456;28;20028;-64
2022/03/24 10:16:32;;;;;;;29.83;23.48;;;;;;;19.89;22.30;102852.66;5079423;28;20020;-64
2022/03/24 10:19:02;;;;;;;29.70;24.58;;;;;;;20.17;21.24;102854.25;5111636;28;20054;-65
2022/03/24 10:21:29;;;;;;;34.47;25.88;;;;;;;20.05;21.61;102857.84;5113326;28;20028;-64
2022/03/24 10:24:01;;;;;;;24.52;21.90;;;;;;;20.22;20.22;102843.13;5113369;28;20020;-65
2022/03/24 10:26:41;;;;;;;27.80;23.08;;;;;;;20.56;21.01;102849.69;5092534;28;20487;-65
2022/03/24 10:29:08;;;;;;;28.33;22.85;;;;;;;20.41;19.99;102839.94;5080071;28;20375;-65
2022/03/24 10:31:36;;;;;;;25.70;22.15;;;;;;;20.73;19.90;102842.13;5093143;28;20054;-65
2022/03/24 10:34:02;;;;;;;22.80;20.33;;;;;;;20.95;18.39;102844.97;5094218;28;20024;-65
2022/03/24 10:36:30;;;;;;;25.52;20.92;;;;;;;21.16;19.34;102845.19;5093694;28;20123;-65
2022/03/24 10:39:04;;;;;;;26.40;22.50;;;;;;;21.27;20.28;102842.53;5100560;28;20486;-65
2022/03/24 10:41:31;;;;;;;26.73;22.65;;;;;;;21.27;19.96;102847.94;5112005;28;20043;-65
2022/03/24 10:44:07;;;;;;;25.45;21.58;;;;;;;21.51;20.17;102841.63;5108647;28;20475;-65
2022/03/24 10:46:34;;;;;;;26.48;22.20;;;;;;;21.53;18.78;102837.84;5112103;28;20470;-65
2022/03/24 10:49:18;;;;;;;26.15;23.35;;;;;;;21.75;19.77;102844.25;5112808;28;20023;-65
2022/03/24 10:51:46;;;;;;;26.10;20.85;;;;;;;21.61;18.86;102842.63;5092234;28;20395;-65
2022/03/24 10:54:21;;;;;;;25.17;21.33;;;;;;;21.87;19.09;102842.44;5097617;28;20024;-65
2022/03/24 10:57:03;;;;;;;28.23;21.85;;;;;;;21.85;19.44;102836.25;5100075;28;20030;-65
2022/03/24 10:59:34;;;;;;;26.60;20.50;;;;;;;21.69;18.64;102839.34;5076960;28;20486;-65
2022/03/24 11:02:00;;;;;;;23.85;20.38;;;;;;;22.16;19.07;102843.66;5110696;28;20019;-65
2022/03/24 11:04:26;;;;;;;25.02;20.35;;;;;;;22.14;18.92;102836.63;5097846;28;20445;-65
2022/03/24 11:06:53;;;;;;;23.60;20.10;;;;;;;22.48;18.37;102833.94;5067730;28;20436;-65
2022/03/24 11:09:37;;;;;;;26.02;23.20;;;;;;;22.64;18.97;102834.38;5078780;28;20110;-65
2022/03/24 11:12:25;;;;;;;26.02;22.58;;;;;;;22.98;18.19;102839.75;5080958;28;20057;-65
2022/03/24 11:14:54;;;;;;;27.05;22.88;;;;;;;23.23;18.45;102831.22;5082164;28;20085;-65